CheckWX is a tool to help pilots better visualize weather data.  It is not intended as a substitute for an official pre-flight weather briefing.

13:10:39 UTC

KBWG TAF
Bowling Green-Warren County Regional Airport
Bowling Green, Kentucky, USA
KBWG 161120Z 1612/1712 17007KT P6SM BKN200 FM161300 19013G21KT P6SM VCSH BKN070 FM161700 20015G23KT P6SM VCTS SCT050CB BKN100 FM170000 20011KT P6SM -SHRA VCTS BKN060CB FM170900 21009KT P6SM VCSH BKN024

Jul-16@
12:00 UTC

Jul-16 @ 12:00 UTC

Jul-16@
13:00 UTC

Jul-16 @ 13:00 UTC

KBWG 161120Z 1612/1712 17007KT P6SM BKN200

Expired

Wind
  • 170° at 7 KTS
Cloud Levels
  • Broken at 20,000' AGL

Jul-16@
13:00 UTC

Jul-16 @ 13:00 UTC

Jul-16@
17:00 UTC

Jul-16 @ 17:00 UTC

FM161300 19013G21KT P6SM VCSH BKN070

From

From Standard forecast or significant change

Wind
  • 190° at 13 KTS
  • {Gusting to 21 KTS
Cloud Levels
  • Broken at 7,000' AGL

Jul-16@
17:00 UTC

Jul-16 @ 17:00 UTC

Jul-17@
00:00 UTC

Jul-17 @ 00:00 UTC

FM161700 20015G23KT P6SM VCTS SCT050CB BKN100

From

From Standard forecast or significant change

Wind
  • 200° at 15 KTS
  • {Gusting to 23 KTS
Conditions
Area Thunderstorm
Cloud Levels
  • Scattered at 5,000' AGL
  • Broken at 10,000' AGL

Jul-17@
00:00 UTC

Jul-17 @ 00:00 UTC

Jul-17@
09:00 UTC

Jul-17 @ 09:00 UTC

FM170000 20011KT P6SM -SHRA VCTS BKN060CB

From

From Standard forecast or significant change

Wind
  • 200° at 11 KTS
Conditions
Light Rain, Area Thunderstorm
Cloud Levels
  • Broken at 6,000' AGL

Jul-17@
09:00 UTC

Jul-17 @ 09:00 UTC

Jul-17@
12:00 UTC

Jul-17 @ 12:00 UTC

FM170900 21009KT P6SM VCSH BKN024

From

From Standard forecast or significant change

Wind
  • 210° at 9 KTS
Cloud Levels
  • Broken at 2,400' AGL